Terminal Aerodrome Forecast
Issued by NWS Wilmington, OH

Current Version | Previous Version | Text Only | Print | Product List | Glossary Off
Versions: 1 2 3 4 5 6 7 8 9 10 11 12 13 14 15 16 17 18 19 20 21 22 23 24

000
FTUS41 KILN 261700
TAFCVG
TAF
KCVG 261728Z 2618/2724 VRB04KT P6SM SCT035 SCT250
     FM262300 VRB03KT P6SM SCT250
     FM270800 VRB02KT 5SM BR VCTS SCT050CB BKN100
     FM271300 34005KT P6SM VCTS BKN050CB=

USA.gov is the U.S. government's official web portal to all federal, state and local government web resources and services.